罗盘
风向 的 风向 的 风向 到 风向 250° Kerken UL 1/19
风: 6 kt, 2 beaufort

3 kt

5 kt
改变
0 1.000 2.000 3.000 4.000 5.000
FEW 3.300 ft
METAR EDLN 161520Z 25006KT 200V310 9999 -RA FEW033 21/14 Q1017

METAR Kerken UL

该字段位于德国中。 该机场有一条跑道: 1/19.

这份报告是针对2022年5月16日 17:20, 当地时间在Mönchengladbach Airport进行的。

机场观察

风向为250°,速度为6 kt。 风向在200°和310°之间变化。

可见度为10 km 或者更多。

有几云在3.300 ft的高度。 没有观察到天花板。

当前天气为光 雨。 温度和风寒是21 °C。 露点为14 °C,相对湿度为64%。 海平面上的气压为1017 hPa (QNH)。

白天

今天,太阳从05:40升起,在21:20降落。 这适用于Kerken UL,世界夏令时可能有所不同。 当地时间与世界标准时间之间的时差为+2 小时。 夏令时目前正在进行中。

公司介绍

我们没有关于这个机场的公司信息。

体会

到Vliegles.nl去找飞行课程,跳伞和其他飞行体验。 浏览页面,了解Kerken UL附近所有可用的活动。 你也可以使用搜索功能来寻找你所在地附近的特定飞行课程、跳伞或其他飞行体验。

您会帮助我们保持Metar-Taf.com正常运行吗?
您的贡献有助于网站的进一步开发并支付费用。

没有更多广告

您是捐款5美元还是更多?然后,我们将永远不会再向您展示广告,这是我们永恒的感谢!
捐赠前先登录

跑道

Id 标题 侧风 逆风
1/19 010°-190° 5 kt 3 kt

逆风成分最大的方向会被突出显示,并用于横风计算。 这并不一定意味着这个方向在使用。

乌云

3.300 ft FEW 几云

温度 & 天气

天气 光 雨
温度 21 °C
露点 14 °C
相对湿度 64%
Kp-index 1  

公司介绍

新增公司

下载我们的应用程序

在您的手机和平板电脑上轻松访问所有航空天气。
有许多网站上没有的功能,如离线支持和个人机场列表。

Studio Eveline

Benalmádena
España